Time;durP1;ratioP1;P1;durP2;ratioP2;P2;SDS_P1;SDS_P2;PMS_P1;PMS_P2;Temp;Humidity;BMP_temperature;BMP_pressure;BME280_temperature;BME280_humidity;BME280_pressure;Samples;Min_cycle;Max_cycle;Signal;HPM_P1;HPM_P2
2023/08/05 07:42:29;;;;;;;9.48;4.30;;;;;;;;;;5100281;27;20999;-87
2023/08/05 07:44:54;;;;;;;9.63;4.15;;;;;;;;;;5107396;27;20031;-88
2023/08/05 07:47:19;;;;;;;8.50;3.73;;;;;;;;;;5100692;28;20031;-84
2023/08/05 07:49:45;;;;;;;9.63;4.35;;;;;;;21.43;nan;100435.41;5103813;28;20055;-83
2023/08/05 07:52:10;;;;;;;8.63;4.22;;;;;;;21.38;nan;100442.84;5105730;28;20031;-83
2023/08/05 07:54:36;;;;;;;10.52;3.90;;;;;;;21.35;nan;100433.38;5083967;28;20025;-84
2023/08/05 07:57:01;;;;;;;7.95;3.88;;;;;;;21.34;nan;100431.69;5087139;28;20142;-84
2023/08/05 07:59:27;;;;;;;7.80;4.50;;;;;;;21.34;nan;100434.34;5105095;28;20375;-84
2023/08/05 08:01:54;;;;;;;8.48;3.92;;;;;;;21.34;nan;100439.63;5103514;27;20138;-85
2023/08/05 08:04:19;;;;;;;9.52;3.80;;;;;;;21.33;nan;100442.34;5106599;28;20706;-84
2023/08/05 08:06:47;;;;;;;7.88;4.13;;;;;;;21.32;nan;100444.16;5104530;28;20068;-84
2023/08/05 08:09:13;;;;;;;11.82;3.70;;;;;;;21.30;nan;100440.81;5105303;28;20483;-83
2023/08/05 08:11:38;;;;;;;7.68;4.20;;;;;;;21.30;nan;100437.31;5105340;28;20019;-84
2023/08/05 08:14:04;;;;;;;7.25;3.95;;;;;;;21.31;nan;100444.28;5103696;28;20220;-84
2023/08/05 08:16:30;;;;;;;10.18;3.70;;;;;;;21.30;nan;100437.31;5102339;28;20114;-84
2023/08/05 08:18:56;;;;;;;8.25;4.35;;;;;;;21.29;nan;100436.50;5086828;28;20209;-84
2023/08/05 08:21:21;;;;;;;6.07;3.92;;;;;;;21.29;nan;100431.22;5104237;28;20472;-84
2023/08/05 08:23:46;;;;;;;5.60;3.65;;;;;;;21.29;nan;100423.28;5109942;27;20031;-84
2023/08/05 08:26:12;;;;;;;7.80;3.80;;;;;;;21.29;nan;100431.22;5106139;28;20037;-84
2023/08/05 08:28:37;;;;;;;5.82;3.38;;;;;;;21.29;nan;100431.22;5104686;28;20030;-84
2023/08/05 08:31:02;;;;;;;6.63;3.33;;;;;;;21.30;nan;100432.03;5087650;28;20078;-84
2023/08/05 08:33:28;;;;;;;7.55;3.33;;;;;;;21.29;nan;100425.94;5110387;28;20042;-85
2023/08/05 08:35:53;;;;;;;11.73;4.40;;;;;;;21.29;nan;100425.06;5103306;28;20019;-85
2023/08/05 08:38:20;;;;;;;9.65;4.13;;;;;;;21.30;nan;100421.47;5103546;28;20044;-84
2023/08/05 08:40:52;;;;;;;13.60;4.18;;;;;;;21.28;nan;100416.28;5087060;28;20042;-84
2023/08/05 08:43:21;;;;;;;5.68;3.40;;;;;;;21.30;nan;100405.63;5113018;28;20023;-84
2023/08/05 08:45:57;;;;;;;5.22;3.50;;;;;;;21.28;nan;100411.00;5113188;28;20287;-85
2023/08/05 08:48:23;;;;;;;8.15;3.65;;;;;;;21.29;nan;100415.38;5104291;28;20032;-84
2023/08/05 08:50:51;;;;;;;4.32;3.13;;;;;;;21.30;nan;100408.28;5087698;28;20031;-84
2023/08/05 08:53:19;;;;;;;7.68;3.25;;;;;;;21.31;nan;100407.31;5095497;28;20035;-84
2023/08/05 08:55:46;;;;;;;6.80;3.50;;;;;;;21.30;nan;100409.13;5092703;28;20467;-84
2023/08/05 08:58:11;;;;;;;8.75;3.33;;;;;;;21.30;nan;100406.47;5090746;28;20396;-85
2023/08/05 09:00:37;;;;;;;6.47;3.83;;;;;;;21.30;nan;100405.63;5071889;28;20032;-84
2023/08/05 09:03:04;;;;;;;8.70;3.65;;;;;;;21.29;nan;100399.53;5087300;28;20024;-84
2023/08/05 09:05:41;;;;;;;5.43;3.33;;;;;;;21.29;nan;100394.25;5087780;28;20423;-84
2023/08/05 09:08:07;;;;;;;5.88;3.38;;;;;;;21.29;nan;100375.75;5088111;28;20020;-84
2023/08/05 09:10:32;;;;;;;6.18;3.15;;;;;;;21.29;nan;100383.69;5074787;28;20024;-85
2023/08/05 09:12:58;;;;;;;3.75;2.90;;;;;;;21.30;nan;100377.44;5096189;28;20089;-84
2023/08/05 09:15:32;;;;;;;6.55;3.28;;;;;;;21.30;nan;100379.22;5091297;28;20023;-84
2023/08/05 09:17:58;;;;;;;6.63;2.97;;;;;;;21.30;nan;100374.78;5092043;28;20049;-84
2023/08/05 09:20:24;;;;;;;3.35;3.00;;;;;;;21.32;nan;100379.94;5073871;28;20032;-84
2023/08/05 09:22:57;;;;;;;8.10;3.60;;;;;;;21.28;nan;100381.13;5094269;28;20050;-84
2023/08/05 09:25:23;;;;;;;6.65;3.05;;;;;;;21.28;nan;100384.63;5084879;28;20027;-84
2023/08/05 09:27:52;;;;;;;6.78;3.05;;;;;;;21.26;nan;100386.50;5088702;28;20040;-84
2023/08/05 09:30:18;;;;;;;4.90;3.03;;;;;;;21.28;nan;100389.88;5088546;28;20550;-84
2023/08/05 09:32:47;;;;;;;5.60;3.40;;;;;;;21.29;nan;100388.97;5091495;28;20281;-84
2023/08/05 09:35:13;;;;;;;6.57;2.97;;;;;;;21.29;nan;100388.97;5080176;28;20040;-84
2023/08/05 09:37:51;;;;;;;3.72;3.20;;;;;;;21.30;nan;100373.94;5072581;28;20526;-85
2023/08/05 09:40:18;;;;;;;7.57;3.17;;;;;;;21.30;nan;100369.50;5088319;28;20036;-85
2023/08/05 09:42:50;;;;;;;3.95;2.95;;;;;;;21.29;nan;100365.19;5088356;28;20034;-84
2023/08/05 09:45:17;;;;;;;3.22;2.80;;;;;;;21.30;nan;100361.59;5075932;28;20019;-84
2023/08/05 09:47:43;;;;;;;5.70;2.90;;;;;;;21.30;nan;100361.59;5071388;28;20030;-84
2023/08/05 09:50:12;;;;;;;3.40;2.85;;;;;;;21.29;nan;100351.13;5071454;28;20055;-84
2023/08/05 09:52:38;;;;;;;4.90;2.95;;;;;;;21.30;nan;100352.81;5068564;28;20024;-85
2023/08/05 09:55:08;;;;;;;5.60;3.25;;;;;;;21.30;nan;100343.09;5072479;28;20043;-85
2023/08/05 09:57:33;;;;;;;4.93;3.10;;;;;;;21.30;nan;100345.75;5091816;28;20027;-84
2023/08/05 09:59:59;;;;;;;4.75;3.10;;;;;;;21.25;nan;100350.50;5090795;28;20024;-84
2023/08/05 10:02:25;;;;;;;5.75;3.30;;;;;;;21.27;nan;100347.75;5072463;28;20024;-84
2023/08/05 10:04:56;;;;;;;5.30;2.92;;;;;;;21.28;nan;100337.09;5080943;28;20446;-84
2023/08/05 10:07:22;;;;;;;6.35;2.90;;;;;;;21.29;nan;100324.72;5091069;28;20438;-84
2023/08/05 10:09:48;;;;;;;4.75;3.25;;;;;;;21.28;nan;100333.59;5087068;28;21022;-85
2023/08/05 10:12:20;;;;;;;4.22;3.22;;;;;;;21.28;nan;100325.69;5092497;28;20028;-85
2023/08/05 10:14:46;;;;;;;3.35;2.63;;;;;;;21.28;nan;100323.88;5073590;28;20031;-85
2023/08/05 10:17:11;;;;;;;4.28;2.97;;;;;;;21.29;nan;100319.44;5087431;28;20031;-85
2023/08/05 10:19:36;;;;;;;5.03;3.00;;;;;;;21.28;nan;100310.69;5086911;28;20035;-84
2023/08/05 10:22:11;;;;;;;6.25;3.20;;;;;;;21.29;nan;100309.75;5086764;28;20028;-85
2023/08/05 10:24:56;;;;;;;3.67;2.70;;;;;;;21.29;nan;100304.47;5091486;28;20045;-84
2023/08/05 10:27:41;;;;;;;2.67;2.45;;;;;;;21.30;nan;100305.28;5071725;28;20034;-86
2023/08/05 10:30:11;;;;;;;4.47;2.42;;;;;;;21.29;nan;100301.81;5088020;28;20031;-84
2023/08/05 10:33:08;;;;;;;5.45;2.80;;;;;;;21.31;nan;100299.03;5091618;28;20552;-84
2023/08/05 10:35:40;;;;;;;4.43;2.50;;;;;;;21.31;nan;100293.75;5041915;28;20121;-85
2023/08/05 10:38:16;;;;;;;2.88;2.50;;;;;;;21.29;nan;100293.03;5087364;28;20030;-85
2023/08/05 10:41:02;;;;;;;3.33;2.70;;;;;;;21.30;nan;100290.28;5084817;28;20039;-84
2023/08/05 10:43:31;;;;;;;5.85;3.00;;;;;;;21.32;nan;100285.72;5086543;28;20035;-85
2023/08/05 10:45:57;;;;;;;3.85;2.58;;;;;;;21.33;nan;100290.06;5096358;28;20023;-84
2023/08/05 10:48:36;;;;;;;3.83;2.70;;;;;;;21.33;nan;100283.91;5090959;28;20076;-84
2023/08/05 10:51:08;;;;;;;3.92;2.25;;;;;;;21.33;nan;100275.97;5089128;28;20760;-84
2023/08/05 10:53:34;;;;;;;4.60;2.83;;;;;;;21.33;nan;100268.06;5084520;28;20106;-85
2023/08/05 10:55:59;;;;;;;3.67;2.50;;;;;;;21.33;nan;100271.56;5089614;28;20185;-85
2023/08/05 10:58:28;;;;;;;2.78;2.58;;;;;;;21.33;nan;100274.22;5072334;28;20099;-83
2023/08/05 11:00:57;;;;;;;3.42;2.78;;;;;;;21.31;nan;100275.28;5071967;28;20088;-84
2023/08/05 11:03:47;;;;;;;5.70;2.75;;;;;;;21.29;nan;100269.25;5074488;28;20035;-85
2023/08/05 11:06:14;;;;;;;2.85;2.45;;;;;;;21.29;nan;100261.34;5083846;28;20031;-85
2023/08/05 11:08:41;;;;;;;3.13;2.47;;;;;;;21.28;nan;100263.16;5086627;28;20432;-84
2023/08/05 11:11:11;;;;;;;3.67;2.50;;;;;;;21.28;nan;100257.88;5086222;28;20101;-84
2023/08/05 11:13:41;;;;;;;3.47;2.50;;;;;;;21.30;nan;100257.75;5090199;28;20032;-84
2023/08/05 11:16:14;;;;;;;3.47;2.45;;;;;;;21.31;nan;100268.19;5071113;28;20206;-84
2023/08/05 11:18:44;;;;;;;7.00;2.40;;;;;;;21.31;nan;100254.16;5088645;28;20082;-84
2023/08/05 11:21:11;;;;;;;4.35;2.53;;;;;;;21.30;nan;100253.31;5088773;28;20411;-83
2023/08/05 11:23:38;;;;;;;3.22;2.70;;;;;;;21.30;nan;100248.03;5088284;28;20082;-85
2023/08/05 11:26:04;;;;;;;5.32;2.58;;;;;;;21.30;nan;100250.69;5094891;28;20027;-85
2023/08/05 11:28:30;;;;;;;5.65;2.70;;;;;;;21.30;nan;100236.63;5074909;28;20035;-85
2023/08/05 11:30:56;;;;;;;3.33;2.22;;;;;;;21.29;nan;100235.81;5087504;28;20055;-84
2023/08/05 11:33:21;;;;;;;4.13;2.50;;;;;;;21.30;nan;100232.19;5092383;28;20045;-83
2023/08/05 11:35:48;;;;;;;5.28;2.92;;;;;;;21.29;nan;100230.53;5076906;28;20035;-84
2023/08/05 11:38:17;;;;;;;2.75;2.38;;;;;;;21.30;nan;100232.19;5071507;28;20085;-84
2023/08/05 11:40:44;;;;;;;3.22;2.33;;;;;;;21.29;nan;100225.25;5069424;28;20569;-84
2023/08/05 11:43:11;;;;;;;3.03;2.05;;;;;;;21.30;nan;100213.72;5084401;28;20260;-84
2023/08/05 11:45:39;;;;;;;4.22;2.13;;;;;;;21.32;nan;100219.69;5091315;28;20034;-84
2023/08/05 11:48:06;;;;;;;4.60;2.28;;;;;;;21.31;nan;100212.75;5084443;28;20127;-84
2023/08/05 11:50:35;;;;;;;2.47;2.25;;;;;;;21.31;nan;100210.09;5069841;28;20032;-84
2023/08/05 11:53:08;;;;;;;3.17;2.30;;;;;;;21.31;nan;100207.47;5073305;28;20027;-85
2023/08/05 11:55:39;;;;;;;2.60;2.40;;;;;;;21.29;nan;100204.13;5094833;28;20400;-84
2023/08/05 11:58:05;;;;;;;2.28;2.03;;;;;;;21.29;nan;100197.97;5086398;28;20035;-84
2023/08/05 12:00:31;;;;;;;3.53;2.40;;;;;;;21.28;nan;100199.78;5086520;28;20031;-85
2023/08/05 12:02:56;;;;;;;3.25;2.22;;;;;;;21.28;nan;100191.03;5090430;28;20035;-85
2023/08/05 12:05:23;;;;;;;2.80;2.05;;;;;;;21.27;nan;100186.66;5088057;28;20043;-85
2023/08/05 12:07:48;;;;;;;3.25;2.60;;;;;;;21.27;nan;100184.91;5072244;28;20023;-84
2023/08/05 12:10:17;;;;;;;2.40;2.17;;;;;;;21.28;nan;100175.19;5086645;28;20134;-84
2023/08/05 12:12:45;;;;;;;3.00;2.33;;;;;;;21.28;nan;100175.19;5086716;28;20024;-84
2023/08/05 12:15:14;;;;;;;2.53;2.33;;;;;;;21.27;nan;100179.63;5086057;28;20119;-84
2023/08/05 12:17:46;;;;;;;2.33;2.13;;;;;;;21.29;nan;100176.84;5069538;28;20028;-85
2023/08/05 12:20:18;;;;;;;2.80;2.55;;;;;;;21.27;nan;100171.69;5087358;28;20091;-85
2023/08/05 12:22:44;;;;;;;3.03;2.50;;;;;;;21.27;nan;100170.84;5126895;27;20049;-84
2023/08/05 12:25:10;;;;;;;2.75;2.40;;;;;;;21.27;nan;100162.91;5065821;28;20059;-85
2023/08/05 12:27:36;;;;;;;3.47;2.50;;;;;;;21.26;nan;100155.97;5087803;28;20073;-84
2023/08/05 12:30:02;;;;;;;2.80;2.15;;;;;;;21.27;nan;100155.00;5075196;28;20039;-84
2023/08/05 12:32:27;;;;;;;2.78;2.50;;;;;;;21.26;nan;100154.16;5094411;28;20131;-84
2023/08/05 12:34:53;;;;;;;2.42;2.22;;;;;;;21.26;nan;100151.50;5091531;28;20027;-84
2023/08/05 12:37:18;;;;;;;2.83;2.30;;;;;;;21.25;nan;100141.91;5091628;28;20031;-84
2023/08/05 12:39:44;;;;;;;2.83;2.40;;;;;;;21.24;nan;100147.34;5074397;28;20108;-85
2023/08/05 12:42:09;;;;;;;2.75;2.22;;;;;;;21.23;nan;100141.22;5071458;28;20039;-84
2023/08/05 12:44:35;;;;;;;2.00;1.90;;;;;;;21.23;nan;100143.88;5097247;28;20027;-84
2023/08/05 12:47:00;;;;;;;2.63;2.22;;;;;;;21.23;nan;100138.56;5074737;28;20557;-84
2023/08/05 12:49:26;;;;;;;2.30;2.10;;;;;;;21.22;nan;100129.00;5091325;28;20035;-84
2023/08/05 12:51:51;;;;;;;2.65;2.45;;;;;;;21.23;nan;100124.53;5074051;28;20038;-84
2023/08/05 12:54:17;;;;;;;2.05;1.92;;;;;;;21.23;nan;100124.53;5085606;28;20070;-84
2023/08/05 12:56:42;;;;;;;3.10;2.20;;;;;;;21.22;nan;100122.88;5093677;28;20028;-84
2023/08/05 12:59:07;;;;;;;2.80;2.33;;;;;;;21.23;nan;100120.09;5075275;28;20039;-84
2023/08/05 13:01:33;;;;;;;2.13;1.98;;;;;;;21.23;nan;100120.09;5091254;28;20044;-83
2023/08/05 13:03:58;;;;;;;2.83;2.20;;;;;;;21.23;nan;100121.91;5101583;28;20492;-84
2023/08/05 13:06:24;;;;;;;2.55;2.30;;;;;;;21.24;nan;100115.66;5091201;28;20447;-83
2023/08/05 13:08:49;;;;;;;3.10;2.20;;;;;;;21.25;nan;100112.03;5089359;28;20115;-84
2023/08/05 13:11:14;;;;;;;3.53;2.10;;;;;;;21.25;nan;100112.88;5089290;28;20028;-84
2023/08/05 13:13:40;;;;;;;1.92;1.75;;;;;;;21.28;nan;100109.16;5089070;28;20111;-84
2023/08/05 13:16:14;;;;;;;2.70;2.22;;;;;;;21.27;nan;100102.19;5067795;28;20088;-83
2023/08/05 13:18:39;;;;;;;2.15;1.80;;;;;;;21.26;nan;100095.22;5091156;28;20053;-83
2023/08/05 13:21:05;;;;;;;2.22;2.10;;;;;;;21.26;nan;100092.59;5089102;28;20028;-83
2023/08/05 13:23:30;;;;;;;3.00;1.90;;;;;;;21.24;nan;100084.81;5086093;28;20100;-83
2023/08/05 13:25:55;;;;;;;2.83;2.20;;;;;;;21.24;nan;100081.34;5088090;28;20032;-84
2023/08/05 13:28:21;;;;;;;2.38;1.98;;;;;;;21.24;nan;100076.06;5091052;28;20028;-84
2023/08/05 13:30:46;;;;;;;2.45;2.25;;;;;;;21.23;nan;100072.56;5090498;28;20027;-84
2023/08/05 13:33:12;;;;;;;3.20;2.30;;;;;;;21.22;nan;100070.06;5085889;28;20436;-84
2023/08/05 13:35:37;;;;;;;2.47;2.00;;;;;;;21.22;nan;100060.34;5090595;28;20432;-84
2023/08/05 13:38:02;;;;;;;2.47;2.00;;;;;;;21.22;nan;100057.72;5090741;28;20028;-83
2023/08/05 13:40:28;;;;;;;3.10;2.42;;;;;;;21.23;nan;100056.72;5072542;28;20048;-85
2023/08/05 13:42:53;;;;;;;2.53;2.33;;;;;;;21.26;nan;100060.91;5097823;28;20455;-85
2023/08/05 13:45:19;;;;;;;2.45;2.20;;;;;;;21.25;nan;100043.41;5084771;28;20059;-84
2023/08/05 13:47:44;;;;;;;2.25;2.05;;;;;;;21.25;nan;100049.50;5068866;28;20036;-84
2023/08/05 13:50:09;;;;;;;1.80;1.70;;;;;;;21.27;nan;100044.09;5087970;28;20080;-84
2023/08/05 13:52:35;;;;;;;2.53;2.33;;;;;;;21.26;nan;100032.69;5089615;28;20030;-84
2023/08/05 13:55:00;;;;;;;1.83;1.73;;;;;;;21.27;nan;100036.19;5076273;28;20040;-84
2023/08/05 13:57:25;;;;;;;2.88;2.28;;;;;;;21.27;nan;100030.91;5086101;28;20035;-85
2023/08/05 13:59:52;;;;;;;2.25;2.05;;;;;;;21.27;nan;100025.63;5087672;28;20043;-85
2023/08/05 14:02:19;;;;;;;2.15;1.85;;;;;;;21.26;nan;100018.66;5089338;28;20036;-84
2023/08/05 14:04:45;;;;;;;2.63;2.17;;;;;;;21.24;nan;100018.81;5098009;28;20024;-84
2023/08/05 14:07:10;;;;;;;1.98;1.80;;;;;;;21.24;nan;100015.31;5088549;28;20846;-85
2023/08/05 14:09:35;;;;;;;3.05;1.95;;;;;;;21.24;nan;100013.53;5070477;28;20027;-85
2023/08/05 14:12:02;;;;;;;2.17;1.90;;;;;;;21.22;nan;100009.34;5069223;28;20741;-84
2023/08/05 14:14:27;;;;;;;2.35;2.15;;;;;;;21.21;nan;100000.56;5069632;28;20099;-84
2023/08/05 14:16:52;;;;;;;2.95;1.88;;;;;;;21.22;nan;100002.25;5086941;28;20031;-84
2023/08/05 14:19:18;;;;;;;2.42;1.77;;;;;;;21.22;nan;99996.97;5089051;28;20472;-84
2023/08/05 14:21:43;;;;;;;2.35;2.20;;;;;;;21.23;nan;99992.53;5086143;28;20031;-85
2023/08/05 14:24:10;;;;;;;1.92;1.75;;;;;;;21.22;nan;99990.88;5091858;28;20032;-84
2023/08/05 14:26:35;;;;;;;2.63;2.00;;;;;;;21.22;nan;99996.97;5088157;28;20031;-85
2023/08/05 14:29:01;;;;;;;3.83;2.15;;;;;;;21.22;nan;99986.44;5071024;28;20031;-84
2023/08/05 14:31:26;;;;;;;2.00;1.80;;;;;;;21.23;nan;99988.09;5070452;28;20459;-85
2023/08/05 14:33:53;;;;;;;2.47;1.92;;;;;;;21.21;nan;99987.38;5091479;28;20087;-83
2023/08/05 14:36:19;;;;;;;2.30;2.10;;;;;;;21.22;nan;99991.69;5090226;28;20035;-84
2023/08/05 14:38:44;;;;;;;2.10;1.98;;;;;;;21.20;nan;99988.34;5087957;28;20023;-84
2023/08/05 14:41:16;;;;;;;2.95;2.20;;;;;;;21.22;nan;99975.88;5086980;28;20110;-84
2023/08/05 14:43:41;;;;;;;2.28;1.90;;;;;;;21.22;nan;99986.44;5084202;28;20727;-84
2023/08/05 14:46:06;;;;;;;3.05;2.22;;;;;;;21.21;nan;99976.81;5085863;28;20103;-85
2023/08/05 14:48:32;;;;;;;1.98;1.80;;;;;;;21.20;nan;99961.09;5086444;28;20028;-84
2023/08/05 14:51:02;;;;;;;2.10;2.00;;;;;;;21.21;nan;99968.06;5086542;28;20122;-85
2023/08/05 14:53:27;;;;;;;1.73;1.60;;;;;;;21.20;nan;99969.84;5081163;28;20120;-84
2023/08/05 14:55:59;;;;;;;2.35;1.80;;;;;;;21.21;nan;99966.25;5087382;28;20484;-85
2023/08/05 14:58:25;;;;;;;2.08;1.65;;;;;;;21.21;nan;99960.97;5089061;28;20028;-84
2023/08/05 15:00:50;;;;;;;2.45;1.95;;;;;;;21.22;nan;99954.75;5089240;28;20031;-84
2023/08/05 15:03:15;;;;;;;1.92;1.83;;;;;;;21.23;nan;99942.38;5066977;28;20696;-84
2023/08/05 15:05:41;;;;;;;2.17;2.00;;;;;;;21.23;nan;99948.50;5084942;28;20031;-85
2023/08/05 15:08:06;;;;;;;2.20;2.00;;;;;;;21.22;nan;99938.91;5070545;28;20024;-84
2023/08/05 15:10:31;;;;;;;2.13;2.00;;;;;;;21.24;nan;99939.59;5070527;28;20027;-83
2023/08/05 15:12:57;;;;;;;1.85;1.75;;;;;;;21.25;nan;99938.63;5092020;28;20040;-84
2023/08/05 15:15:23;;;;;;;2.05;1.83;;;;;;;21.24;nan;99944.03;5087402;28;20031;-84
2023/08/05 15:17:48;;;;;;;2.13;1.92;;;;;;;21.23;nan;99940.56;5073360;28;20032;-84
2023/08/05 15:20:13;;;;;;;1.85;1.55;;;;;;;21.23;nan;99943.22;5081016;28;20051;-84
2023/08/05 15:22:39;;;;;;;1.92;1.80;;;;;;;21.23;nan;99934.47;5067749;28;20027;-84
2023/08/05 15:25:05;;;;;;;1.98;1.80;;;;;;;21.23;nan;99931.81;5075285;28;20096;-84
2023/08/05 15:27:30;;;;;;;2.17;1.90;;;;;;;21.23;nan;99924.72;5089165;28;20028;-84
2023/08/05 15:29:59;;;;;;;1.98;1.80;;;;;;;21.22;nan;99928.34;5087470;28;20031;-84
2023/08/05 15:32:25;;;;;;;2.25;1.90;;;;;;;21.23;nan;99927.38;5083692;28;20728;-85
2023/08/05 15:34:50;;;;;;;2.25;1.92;;;;;;;21.23;nan;99923.91;5071009;28;20032;-84
2023/08/05 15:37:16;;;;;;;2.28;1.80;;;;;;;21.22;nan;99923.06;5088696;28;20032;-84
2023/08/05 15:39:41;;;;;;;1.83;1.67;;;;;;;21.22;nan;99923.06;5086585;28;20024;-84
2023/08/05 15:42:06;;;;;;;1.98;1.80;;;;;;;21.22;nan;99925.69;5089209;28;20410;-84
2023/08/05 15:44:35;;;;;;;1.80;1.70;;;;;;;21.22;nan;99928.34;5071829;28;20531;-84
2023/08/05 15:47:05;;;;;;;2.13;2.03;;;;;;;21.23;nan;99921.25;5075574;28;20038;-84
2023/08/05 15:49:30;;;;;;;2.05;1.92;;;;;;;21.23;nan;99922.09;5087416;28;20035;-84
2023/08/05 15:51:56;;;;;;;1.92;1.83;;;;;;;21.23;nan;99915.97;5086875;28;20050;-85
2023/08/05 15:54:21;;;;;;;1.65;1.55;;;;;;;21.22;nan;99917.78;5094322;28;20099;-84
2023/08/05 15:56:47;;;;;;;2.13;1.58;;;;;;;21.22;nan;99909.88;5088965;28;20032;-85
2023/08/05 15:59:16;;;;;;;2.20;2.00;;;;;;;21.23;nan;99911.53;5087401;28;21151;-85
2023/08/05 16:01:41;;;;;;;2.37;2.27;;;;;;;21.22;nan;99901.94;5072332;28;20120;-84
2023/08/05 16:04:06;;;;;;;1.92;1.83;;;;;;;21.22;nan;99912.50;5101390;28;20104;-84
2023/08/05 16:06:32;;;;;;;2.30;2.00;;;;;;;21.22;nan;99898.47;5090047;28;20019;-84
2023/08/05 16:08:57;;;;;;;1.67;1.58;;;;;;;21.22;nan;99899.31;5075031;28;20032;-84
2023/08/05 16:11:22;;;;;;;1.70;1.60;;;;;;;21.21;nan;99887.03;5074530;28;20123;-84
2023/08/05 16:13:48;;;;;;;1.98;1.63;;;;;;;21.20;nan;99888.03;5098761;28;20059;-84
2023/08/05 16:16:18;;;;;;;2.08;1.83;;;;;;;21.20;nan;99892.47;5089331;28;20483;-84
2023/08/05 16:18:44;;;;;;;1.98;1.70;;;;;;;21.20;nan;99887.19;5073986;28;20384;-84
2023/08/05 16:21:19;;;;;;;2.05;1.95;;;;;;;21.20;nan;99879.25;5092402;28;20029;-85
2023/08/05 16:23:46;;;;;;;1.85;1.75;;;;;;;21.19;nan;99881.06;5067134;28;20492;-85
2023/08/05 16:26:18;;;;;;;2.67;1.70;;;;;;;21.20;nan;99879.25;5096751;28;20794;-83
2023/08/05 16:28:44;;;;;;;2.00;1.80;;;;;;;21.20;nan;99887.19;5088744;28;20027;-84
2023/08/05 16:31:09;;;;;;;2.40;2.00;;;;;;;21.18;nan;99879.41;5073127;28;20065;-84
2023/08/05 16:33:36;;;;;;;2.05;1.73;;;;;;;21.18;nan;99887.31;5087312;28;20035;-84
2023/08/05 16:36:03;;;;;;;1.70;1.60;;;;;;;21.18;nan;99882.88;5082490;28;20040;-84
2023/08/05 16:38:30;;;;;;;1.70;1.60;;;;;;;21.18;nan;99879.41;5090805;28;20185;-85
2023/08/05 16:40:55;;;;;;;2.45;1.83;;;;;;;21.18;nan;99874.13;5075874;28;20040;-84
2023/08/05 16:43:21;;;;;;;1.80;1.70;;;;;;;21.17;nan;99875.94;5076464;28;20031;-84
2023/08/05 16:45:46;;;;;;;1.90;1.80;;;;;;;21.19;nan;99886.34;5100367;28;20040;-84
2023/08/05 16:48:12;;;;;;;2.05;1.60;;;;;;;21.17;nan;99886.50;5089501;28;20027;-83
2023/08/05 16:50:37;;;;;;;1.90;1.80;;;;;;;21.17;nan;99881.22;5072987;28;20062;-85
2023/08/05 16:53:03;;;;;;;1.63;1.52;;;;;;;21.17;nan;99883.03;5079388;28;20033;-85
2023/08/05 16:55:28;;;;;;;1.88;1.77;;;;;;;21.16;nan;99873.44;5072440;28;20854;-85
2023/08/05 16:57:54;;;;;;;2.10;1.70;;;;;;;21.17;nan;99873.28;5089419;28;20030;-85
2023/08/05 17:00:20;;;;;;;2.55;1.85;;;;;;;21.14;nan;99873.53;5089187;28;20502;-83
2023/08/05 17:02:45;;;;;;;1.65;1.55;;;;;;;21.14;nan;99868.25;5071339;28;20020;-83
2023/08/05 17:05:11;;;;;;;1.80;1.70;;;;;;;21.14;nan;99868.25;5090670;28;20400;-84
2023/08/05 17:07:36;;;;;;;1.67;1.58;;;;;;;21.14;nan;99865.63;5089978;28;20661;-85
2023/08/05 17:10:01;;;;;;;2.00;1.80;;;;;;;21.14;nan;99855.06;5093634;28;20049;-85
2023/08/05 17:12:27;;;;;;;1.67;1.58;;;;;;;21.13;nan;99850.75;5077582;28;20094;-85
2023/08/05 17:14:52;;;;;;;1.73;1.55;;;;;;;21.13;nan;99849.94;5099811;28;20024;-85
2023/08/05 17:17:18;;;;;;;1.45;1.35;;;;;;;21.13;nan;99849.94;5090253;28;20081;-84
2023/08/05 17:19:43;;;;;;;1.40;1.30;;;;;;;21.13;nan;99849.94;5093508;28;20059;-84
2023/08/05 17:22:08;;;;;;;1.60;1.50;;;;;;;21.13;nan;99850.75;5087337;28;20020;-85
2023/08/05 17:24:34;;;;;;;1.55;1.45;;;;;;;21.12;nan;99857.00;5093557;28;20844;-84
2023/08/05 17:27:00;;;;;;;3.75;2.42;;;;;;;21.12;nan;99864.94;5072452;28;20739;-84
2023/08/05 17:29:25;;;;;;;2.03;1.73;;;;;;;21.13;nan;99863.13;5089883;28;20031;-84
2023/08/05 17:31:50;;;;;;;1.50;1.35;;;;;;;21.12;nan;99864.09;5070713;28;20024;-84
2023/08/05 17:34:16;;;;;;;2.38;1.70;;;;;;;21.13;nan;99849.94;5087594;28;20027;-84
2023/08/05 17:36:41;;;;;;;1.70;1.60;;;;;;;21.12;nan;99850.91;5089227;28;20362;-85
2023/08/05 17:39:06;;;;;;;1.30;1.30;;;;;;;21.13;nan;99865.75;5087663;28;20383;-85
2023/08/05 17:41:32;;;;;;;2.08;1.88;;;;;;;21.11;nan;99855.34;5074138;28;20478;-84
2023/08/05 17:43:57;;;;;;;1.85;1.75;;;;;;;21.12;nan;99857.00;5091006;28;20040;-84
2023/08/05 17:46:22;;;;;;;1.60;1.50;;;;;;;21.11;nan;99865.91;5075451;28;20031;-84
2023/08/05 17:48:48;;;;;;;2.20;1.60;;;;;;;21.11;nan;99863.25;5089283;28;20457;-84
2023/08/05 17:51:13;;;;;;;1.70;1.60;;;;;;;21.11;nan;99862.44;5088000;28;20456;-85
2023/08/05 17:53:38;;;;;;;1.50;1.40;;;;;;;21.11;nan;99863.25;5094899;28;20051;-85
2023/08/05 17:56:04;;;;;;;1.70;1.60;;;;;;;21.10;nan;99861.59;5069777;28;20031;-84
2023/08/05 17:58:29;;;;;;;1.65;1.55;;;;;;;21.11;nan;99857.97;5089894;28;20064;-85
2023/08/05 18:00:54;;;;;;;1.63;1.52;;;;;;;21.10;nan;99858.09;5090405;28;20032;-84
2023/08/05 18:03:20;;;;;;;1.60;1.50;;;;;;;21.11;nan;99854.50;5089466;28;20486;-86
2023/08/05 18:05:46;;;;;;;1.52;1.42;;;;;;;21.10;nan;99861.59;5087891;28;20039;-85
2023/08/05 18:08:12;;;;;;;1.88;1.67;;;;;;;21.10;nan;99858.09;5089612;28;20080;-84
2023/08/05 18:10:37;;;;;;;1.52;1.40;;;;;;;21.10;nan;99871.28;5091161;28;20915;-84
2023/08/05 18:13:02;;;;;;;2.00;1.80;;;;;;;21.10;nan;99866.00;5070201;28;20031;-85
2023/08/05 18:15:28;;;;;;;1.77;1.63;;;;;;;21.10;nan;99866.00;5092995;28;20036;-84
2023/08/05 18:17:53;;;;;;;1.65;1.55;;;;;;;21.11;nan;99875.63;5088455;28;20115;-84
2023/08/05 18:20:20;;;;;;;1.75;1.63;;;;;;;21.09;nan;99867.81;5070934;28;20032;-85
2023/08/05 18:22:45;;;;;;;1.65;1.55;;;;;;;21.09;nan;99864.34;5094661;28;20031;-84
2023/08/05 18:25:10;;;;;;;1.80;1.70;;;;;;;21.08;nan;99863.50;5086624;28;20802;-85
2023/08/05 18:27:36;;;;;;;1.95;1.67;;;;;;;21.08;nan;99863.50;5073035;28;20081;-84
2023/08/05 18:30:01;;;;;;;1.73;1.63;;;;;;;21.08;nan;99867.97;5089300;28;20028;-85
2023/08/05 18:32:27;;;;;;;1.55;1.45;;;;;;;21.06;nan;99865.47;5092149;28;20027;-85
2023/08/05 18:34:52;;;;;;;1.60;1.50;;;;;;;21.07;nan;99861.84;5090007;28;20587;-84
2023/08/05 18:37:18;;;;;;;1.60;1.50;;;;;;;21.07;nan;99867.13;5087649;28;20035;-84
2023/08/05 18:39:44;;;;;;;2.60;1.70;;;;;;;21.06;nan;99862.00;5089019;28;20047;-84
2023/08/05 18:42:10;;;;;;;1.80;1.70;;;;;;;21.06;nan;99876.00;5086699;28;20044;-84
2023/08/05 18:44:36;;;;;;;1.60;1.50;;;;;;;21.06;nan;99883.09;5072336;28;20030;-85
2023/08/05 18:47:02;;;;;;;1.50;1.40;;;;;;;21.06;nan;99885.75;5092251;28;20038;-84
2023/08/05 18:49:27;;;;;;;1.85;1.60;;;;;;;21.05;nan;99879.63;5089113;28;20024;-84
2023/08/05 18:51:52;;;;;;;1.65;1.55;;;;;;;21.05;nan;99884.06;5089395;28;20623;-85
2023/08/05 18:54:19;;;;;;;1.33;1.23;;;;;;;21.06;nan;99891.03;5067934;28;20040;-84
2023/08/05 18:56:51;;;;;;;1.50;1.40;;;;;;;21.05;nan;99895.47;5074265;28;20085;-85
2023/08/05 18:59:16;;;;;;;1.65;1.55;;;;;;;21.06;nan;99906.84;5091892;28;20031;-83
2023/08/05 19:01:42;;;;;;;1.50;1.40;;;;;;;21.04;nan;99895.56;5093812;28;22085;-84
2023/08/05 19:04:07;;;;;;;1.50;1.40;;;;;;;21.04;nan;99901.69;5085749;28;20055;-84
2023/08/05 19:06:32;;;;;;;1.50;1.40;;;;;;;21.05;nan;99907.84;5086252;28;20027;-85
2023/08/05 19:08:58;;;;;;;1.45;1.35;;;;;;;21.03;nan;99913.22;5086575;28;20046;-84
2023/08/05 19:11:23;;;;;;;1.67;1.58;;;;;;;21.03;nan;99915.03;5086269;28;20287;-84
2023/08/05 19:13:49;;;;;;;1.42;1.33;;;;;;;21.04;nan;99924.59;5065011;28;20035;-83
2023/08/05 19:16:14;;;;;;;1.70;1.60;;;;;;;21.03;nan;99925.56;5089583;28;20441;-84
2023/08/05 19:18:40;;;;;;;1.30;1.20;;;;;;;21.02;nan;99932.66;5070253;28;20035;-83
2023/08/05 19:21:07;;;;;;;1.50;1.40;;;;;;;21.02;nan;99922.09;5088195;28;20073;-85
2023/08/05 19:23:33;;;;;;;1.52;1.42;;;;;;;21.03;nan;99907.09;5068582;28;20033;-85
2023/08/05 19:25:59;;;;;;;1.60;1.50;;;;;;;21.01;nan;99898.50;5064688;28;20142;-84